Time;durP1;ratioP1;P1;durP2;ratioP2;P2;SDS_P1;SDS_P2;PMS_P1;PMS_P2;Temp;Humidity;BMP_temperature;BMP_pressure;BME280_temperature;BME280_humidity;BME280_pressure;Samples;Min_cycle;Max_cycle;Signal;HPM_P1;HPM_P2
2024/01/20 00:00:02;;;;;;;8.45;4.40;;;;;;;-4.68;100.00;99235.75;3184022;23;20021;-87
2024/01/20 00:01:18;;;;;;;9.73;4.45;;;;;;;-4.50;100.00;99239.09;3183992;23;20090;-87
2024/01/20 00:02:34;;;;;;;11.10;4.55;;;;;;;-4.50;100.00;99237.41;3183966;23;20033;-87
2024/01/20 00:03:52;;;;;;;12.02;4.28;;;;;;;-4.36;100.00;99234.59;3200808;23;20465;-87
2024/01/20 00:05:08;;;;;;;10.68;4.25;;;;;;;-4.45;100.00;99237.59;3178508;23;20013;-89
2024/01/20 00:06:24;;;;;;;13.43;4.45;;;;;;;-4.46;100.00;99233.31;3172823;23;20542;-86
2024/01/20 00:07:41;;;;;;;9.35;4.22;;;;;;;-4.51;100.00;99239.91;3194832;23;20019;-88
2024/01/20 00:08:56;;;;;;;9.75;4.40;;;;;;;-4.86;100.00;99240.03;3178859;23;20017;-87
2024/01/20 00:10:12;;;;;;;10.15;4.15;;;;;;;-4.96;100.00;99242.16;3175573;23;20009;-87
2024/01/20 00:11:28;;;;;;;9.45;4.47;;;;;;;-4.90;100.00;99239.00;3168690;23;20459;-87
2024/01/20 00:12:44;;;;;;;8.60;4.22;;;;;;;-4.92;100.00;99239.72;3160124;23;20104;-87
2024/01/20 00:14:00;;;;;;;12.80;4.80;;;;;;;-5.01;100.00;99238.50;3174741;23;20087;-87
2024/01/20 00:15:17;;;;;;;7.22;3.65;;;;;;;-5.15;100.00;99236.97;3168626;23;20092;-87
2024/01/20 00:16:35;;;;;;;13.90;4.78;;;;;;;-5.02;100.00;99236.75;3176191;23;20099;-87
2024/01/20 00:17:52;;;;;;;11.50;4.05;;;;;;;-5.02;100.00;99230.75;3184101;23;20013;-87
2024/01/20 00:19:09;;;;;;;15.38;4.82;;;;;;;-4.87;100.00;99231.47;3183977;23;20139;-87
2024/01/20 00:20:25;;;;;;;13.52;4.47;;;;;;;-4.92;100.00;99234.63;3177969;23;20017;-88
2024/01/20 00:21:41;;;;;;;9.65;4.25;;;;;;;-4.92;100.00;99232.06;3175633;23;20481;-87
2024/01/20 00:22:57;;;;;;;7.63;3.88;;;;;;;-4.97;100.00;99230.19;3184437;23;20536;-86
2024/01/20 00:24:14;;;;;;;12.48;4.85;;;;;;;-5.00;100.00;99232.59;3185320;23;20453;-87
2024/01/20 00:25:30;;;;;;;9.35;4.20;;;;;;;-5.19;100.00;99235.06;3169666;23;20071;-87
2024/01/20 00:26:47;;;;;;;9.32;4.20;;;;;;;-5.26;100.00;99237.34;3184467;23;20013;-86
2024/01/20 00:28:03;;;;;;;11.48;4.57;;;;;;;-5.51;100.00;99235.28;3184681;23;20013;-89
2024/01/20 00:29:19;;;;;;;12.65;5.13;;;;;;;-5.48;100.00;99239.63;3184856;23;20048;-88
2024/01/20 00:30:36;;;;;;;12.73;5.07;;;;;;;-5.54;100.00;99238.56;3168507;23;20124;-87
2024/01/20 00:31:52;;;;;;;9.38;4.38;;;;;;;-5.35;100.00;99225.81;3175199;23;20013;-87
2024/01/20 00:33:08;;;;;;;4.35;2.25;;;;;;;-5.36;100.00;99229.16;3184070;23;20017;-87
2024/01/20 00:34:26;;;;;;;15.80;5.03;;;;;;;-4.99;100.00;99221.56;3184854;23;20427;-86
2024/01/20 00:35:42;;;;;;;8.35;4.32;;;;;;;-4.88;100.00;99221.22;3184485;23;20043;-89
2024/01/20 00:37:00;;;;;;;13.32;5.00;;;;;;;-4.89;100.00;99225.44;3168786;23;20093;-87
2024/01/20 00:38:16;;;;;;;11.57;5.18;;;;;;;-4.84;100.00;99226.50;3176634;23;20044;-88
2024/01/20 00:39:32;;;;;;;6.55;2.47;;;;;;;-4.99;100.00;99229.25;3169393;23;20079;-89
2024/01/20 00:40:49;;;;;;;7.50;3.53;;;;;;;-4.77;100.00;99224.25;3191765;23;20009;-88
2024/01/20 00:42:05;;;;;;;6.68;3.17;;;;;;;-4.85;100.00;99227.31;3177532;23;20041;-88
2024/01/20 00:43:21;;;;;;;10.05;3.90;;;;;;;-4.76;100.00;99226.84;3159898;23;20021;-89
2024/01/20 00:44:40;;;;;;;7.13;3.67;;;;;;;-4.73;100.00;99223.56;3159528;23;20357;-89
2024/01/20 00:45:56;;;;;;;7.88;3.30;;;;;;;-4.70;100.00;99237.38;3186488;23;20009;-87
2024/01/20 00:47:12;;;;;;;6.85;2.95;;;;;;;-4.54;100.00;99230.41;3195124;23;20040;-89
2024/01/20 00:48:28;;;;;;;7.95;2.72;;;;;;;-4.65;100.00;99240.16;3206667;23;20492;-89
2024/01/20 00:49:47;;;;;;;5.60;2.05;;;;;;;-4.53;100.00;99234.72;3194377;23;20096;-88
2024/01/20 00:51:03;;;;;;;6.30;2.35;;;;;;;-4.41;100.00;99239.47;3185557;23;20017;-89
2024/01/20 00:52:19;;;;;;;6.10;2.47;;;;;;;-4.32;100.00;99239.91;3200646;23;20016;-88
2024/01/20 00:53:34;;;;;;;4.22;1.95;;;;;;;-4.24;100.00;99245.34;3177834;23;20013;-88
2024/01/20 00:54:51;;;;;;;9.50;3.10;;;;;;;-4.33;100.00;99255.16;3184861;23;20029;-89
2024/01/20 00:56:07;;;;;;;8.57;3.75;;;;;;;-4.26;100.00;99246.97;3193869;23;20019;-87
2024/01/20 00:57:24;;;;;;;4.53;1.92;;;;;;;-4.54;100.00;99253.41;3184795;23;20092;-86
2024/01/20 00:58:41;;;;;;;6.97;3.03;;;;;;;-4.42;100.00;99251.41;3182964;23;20013;-87
2024/01/20 00:59:57;;;;;;;7.28;2.60;;;;;;;-4.49;100.00;99251.06;3168867;23;20021;-88
2024/01/20 01:01:13;;;;;;;7.57;3.25;;;;;;;-4.54;100.00;99258.53;3174694;23;20009;-88
2024/01/20 01:02:29;;;;;;;6.07;2.88;;;;;;;-4.63;100.00;99258.97;3168079;23;20017;-88
2024/01/20 01:03:45;;;;;;;6.72;3.10;;;;;;;-4.53;100.00;99262.81;3190350;23;20116;-89
2024/01/20 01:05:01;;;;;;;7.13;2.90;;;;;;;-4.47;100.00;99264.78;3193944;23;20063;-89
2024/01/20 01:06:17;;;;;;;8.20;3.53;;;;;;;-4.54;100.00;99263.63;3168456;23;20490;-88
2024/01/20 01:07:33;;;;;;;6.45;3.00;;;;;;;-4.59;100.00;99265.09;3191376;23;20031;-88
2024/01/20 01:08:50;;;;;;;5.25;2.90;;;;;;;-4.55;100.00;99272.09;3193034;23;20017;-88
2024/01/20 01:10:06;;;;;;;6.78;2.83;;;;;;;-4.75;100.00;99274.63;3185181;23;20041;-88
2024/01/20 01:11:22;;;;;;;6.30;2.53;;;;;;;-4.56;100.00;99275.47;3184256;23;20013;-88
2024/01/20 01:12:40;;;;;;;6.45;2.72;;;;;;;-4.37;100.00;99271.19;3169827;23;20556;-88
2024/01/20 01:13:56;;;;;;;5.40;2.85;;;;;;;-4.51;100.00;99273.97;3175348;23;20331;-88
2024/01/20 01:15:13;;;;;;;2.78;1.70;;;;;;;-4.63;100.00;99275.97;3184229;23;20041;-89
2024/01/20 01:16:29;;;;;;;6.10;2.53;;;;;;;-4.41;100.00;99271.06;3168599;23;20335;-88
2024/01/20 01:17:44;;;;;;;3.75;1.65;;;;;;;-4.44;100.00;99272.59;3174391;23;20015;-88
2024/01/20 01:19:00;;;;;;;4.50;1.70;;;;;;;-4.38;100.00;99274.53;3184387;23;20016;-89
2024/01/20 01:20:17;;;;;;;3.35;2.03;;;;;;;-4.47;100.00;99275.91;3184455;23;20080;-88
2024/01/20 01:21:33;;;;;;;6.30;1.48;;;;;;;-4.43;100.00;99277.78;3169337;23;20017;-88
2024/01/20 01:22:51;;;;;;;4.68;2.15;;;;;;;-4.43;100.00;99275.22;3175445;23;20449;-88
2024/01/20 01:24:07;;;;;;;11.60;3.70;;;;;;;-4.20;100.00;99277.91;3166365;23;20013;-88
2024/01/20 01:25:24;;;;;;;8.32;2.90;;;;;;;-4.34;100.00;99278.97;3175609;23;20572;-87
2024/01/20 01:26:41;;;;;;;8.82;3.13;;;;;;;-4.36;100.00;99275.50;3178390;23;20021;-87
2024/01/20 01:27:57;;;;;;;8.02;3.53;;;;;;;-4.34;100.00;99279.88;3160050;23;20013;-88
2024/01/20 01:29:12;;;;;;;7.82;3.47;;;;;;;-4.46;100.00;99281.88;3159463;23;20022;-88
2024/01/20 01:30:28;;;;;;;9.10;3.75;;;;;;;-4.66;100.00;99283.50;3159233;23;20021;-88
2024/01/20 01:31:44;;;;;;;6.65;3.25;;;;;;;-4.63;100.00;99281.09;3174326;23;20080;-89
2024/01/20 01:33:00;;;;;;;7.30;3.50;;;;;;;-4.64;100.00;99292.09;3168599;23;20021;-87
2024/01/20 01:34:17;;;;;;;11.32;4.22;;;;;;;-4.72;100.00;99296.88;3160492;23;20009;-87
2024/01/20 01:35:33;;;;;;;9.93;4.63;;;;;;;-4.91;100.00;99296.00;3174951;23;20043;-90
2024/01/20 01:36:49;;;;;;;11.35;5.00;;;;;;;-4.86;100.00;99298.78;3168702;23;20103;-88
2024/01/20 01:38:05;;;;;;;11.00;4.45;;;;;;;-4.94;100.00;99294.97;3191006;23;20442;-87
2024/01/20 01:39:23;;;;;;;12.45;5.47;;;;;;;-4.90;100.00;99302.88;3194051;23;20043;-87
2024/01/20 01:40:39;;;;;;;15.57;4.78;;;;;;;-5.00;100.00;99301.56;3183514;23;20072;-87
2024/01/20 01:41:55;;;;;;;11.82;5.20;;;;;;;-4.82;100.00;99298.13;3168892;23;20521;-87
2024/01/20 01:43:11;;;;;;;13.63;5.18;;;;;;;-4.97;100.00;99305.91;3184736;23;20405;-87
2024/01/20 01:44:27;;;;;;;12.60;5.38;;;;;;;-5.02;100.00;99304.81;3169158;23;20143;-86
2024/01/20 01:45:46;;;;;;;10.60;4.82;;;;;;;-5.05;100.00;99303.00;3191518;23;20019;-87
2024/01/20 01:47:02;;;;;;;10.55;4.50;;;;;;;-5.15;100.00;99304.22;3209313;23;20012;-88
2024/01/20 01:48:19;;;;;;;12.10;4.57;;;;;;;-5.12;100.00;99304.38;3193857;23;20031;-87
2024/01/20 01:49:36;;;;;;;11.80;5.32;;;;;;;-5.14;100.00;99300.00;3184026;23;20027;-87
2024/01/20 01:50:54;;;;;;;9.93;4.15;;;;;;;-5.16;100.00;99294.81;3168594;23;20021;-87
2024/01/20 01:52:11;;;;;;;9.43;5.03;;;;;;;-5.09;100.00;99301.09;3175873;23;20096;-87
2024/01/20 01:53:29;;;;;;;9.45;4.03;;;;;;;-5.08;100.00;99295.19;3162701;23;20262;-87
2024/01/20 01:54:46;;;;;;;10.50;4.63;;;;;;;-5.10;100.00;99296.78;3170483;23;20024;-87
2024/01/20 01:56:05;;;;;;;12.43;4.68;;;;;;;-5.13;100.00;99296.66;3176025;23;20009;-87
2024/01/20 01:57:22;;;;;;;11.02;4.43;;;;;;;-5.20;100.00;99295.47;3184130;23;20092;-87
2024/01/20 01:58:38;;;;;;;9.38;3.97;;;;;;;-5.28;100.00;99295.09;3170385;23;20013;-87
2024/01/20 01:59:54;;;;;;;9.45;3.60;;;;;;;-5.34;100.00;99299.03;3176542;23;20017;-89
2024/01/20 02:01:10;;;;;;;5.68;3.00;;;;;;;-5.32;100.00;99290.63;3169928;23;20446;-87
2024/01/20 02:02:27;;;;;;;8.60;4.43;;;;;;;-5.26;100.00;99295.16;3161370;23;20052;-87
2024/01/20 02:03:44;;;;;;;8.30;4.25;;;;;;;-5.34;100.00;99293.94;3190963;23;20092;-87
2024/01/20 02:05:00;;;;;;;6.90;3.42;;;;;;;-5.44;100.00;99300.25;3194162;23;20017;-88
2024/01/20 02:06:17;;;;;;;6.75;3.17;;;;;;;-5.33;100.00;99293.97;3185348;23;20012;-88
2024/01/20 02:07:35;;;;;;;9.93;3.80;;;;;;;-5.36;100.00;99291.28;3202095;23;20050;-89
2024/01/20 02:08:52;;;;;;;10.95;3.95;;;;;;;-5.31;100.00;99292.41;3194832;23;20092;-89
2024/01/20 02:10:10;;;;;;;8.20;3.83;;;;;;;-5.37;100.00;99301.44;3201873;23;20015;-87
2024/01/20 02:11:27;;;;;;;9.50;3.70;;;;;;;-5.34;100.00;99301.59;3178870;23;20038;-86
2024/01/20 02:12:43;;;;;;;11.20;4.13;;;;;;;-5.40;100.00;99294.50;3175997;23;20452;-87
2024/01/20 02:14:00;;;;;;;10.50;4.10;;;;;;;-5.39;100.00;99292.00;3185615;23;20009;-87
2024/01/20 02:15:16;;;;;;;7.63;3.83;;;;;;;-5.59;100.00;99290.16;3184740;23;20017;-87
2024/01/20 02:16:32;;;;;;;8.48;3.97;;;;;;;-5.47;100.00;99285.66;3169672;23;20055;-87
2024/01/20 02:17:53;;;;;;;8.65;3.65;;;;;;;-5.50;100.00;99290.63;3192007;23;20036;-87
2024/01/20 02:19:08;;;;;;;10.07;4.00;;;;;;;-5.51;100.00;99293.09;3178863;23;20100;-87
2024/01/20 02:20:25;;;;;;;6.95;2.90;;;;;;;-5.63;100.00;99291.66;3160250;23;20011;-87
2024/01/20 02:21:41;;;;;;;8.35;3.65;;;;;;;-5.52;100.00;99294.75;3169145;23;20108;-87
2024/01/20 02:22:57;;;;;;;9.80;3.67;;;;;;;-5.46;100.00;99302.72;3175514;23;20500;-87
2024/01/20 02:24:13;;;;;;;6.07;3.55;;;;;;;-5.54;100.00;99294.69;3184277;23;20075;-88
2024/01/20 02:25:30;;;;;;;8.25;3.55;;;;;;;-5.62;100.00;99301.06;3201284;23;20001;-89
2024/01/20 02:26:46;;;;;;;7.20;3.08;;;;;;;-5.74;100.00;99297.88;3179188;23;20080;-88
2024/01/20 02:28:02;;;;;;;9.60;3.88;;;;;;;-5.71;100.00;99303.16;3160807;23;20124;-87
2024/01/20 02:29:18;;;;;;;7.47;3.42;;;;;;;-5.75;100.00;99303.78;3159567;23;20477;-86
2024/01/20 02:30:34;;;;;;;9.57;3.60;;;;;;;-5.77;100.00;99303.72;3176040;23;20083;-87
2024/01/20 02:31:50;;;;;;;8.80;3.58;;;;;;;-5.65;100.00;99300.91;3201489;23;20009;-87
2024/01/20 02:33:06;;;;;;;6.50;3.45;;;;;;;-5.75;100.00;99301.25;3211760;23;20040;-87
2024/01/20 02:34:22;;;;;;;9.13;4.00;;;;;;;-6.06;100.00;99307.34;3193933;23;20021;-87
2024/01/20 02:35:38;;;;;;;8.02;3.75;;;;;;;-6.05;100.00;99306.53;3199067;23;20066;-87
2024/01/20 02:36:54;;;;;;;11.23;4.10;;;;;;;-6.15;100.00;99316.25;3194259;23;20114;-87
2024/01/20 02:38:10;;;;;;;8.02;3.35;;;;;;;-6.50;100.00;99315.25;3169429;23;20478;-87
2024/01/20 02:39:26;;;;;;;8.75;3.67;;;;;;;-6.56;100.00;99313.25;3185403;23;20001;-87
2024/01/20 02:40:42;;;;;;;7.68;3.33;;;;;;;-6.61;100.00;99314.69;3201173;23;20024;-87
2024/01/20 02:41:59;;;;;;;9.50;3.85;;;;;;;-6.53;100.00;99308.31;3194652;23;20063;-87
2024/01/20 02:43:15;;;;;;;8.20;3.80;;;;;;;-6.68;100.00;99305.81;3185728;23;20009;-87
2024/01/20 02:44:31;;;;;;;9.35;3.45;;;;;;;-6.67;100.00;99311.78;3168769;23;20798;-87
2024/01/20 02:45:47;;;;;;;9.38;3.92;;;;;;;-6.65;100.00;99311.88;3160256;23;20048;-88
2024/01/20 02:47:05;;;;;;;10.18;3.63;;;;;;;-6.62;100.00;99307.84;3192386;23;20107;-87
2024/01/20 02:48:20;;;;;;;8.60;3.53;;;;;;;-6.61;100.00;99308.69;3194293;23;20021;-87
2024/01/20 02:49:36;;;;;;;6.55;3.38;;;;;;;-6.63;100.00;99308.63;3194951;23;20009;-89
2024/01/20 02:50:52;;;;;;;8.27;3.92;;;;;;;-6.79;100.00;99308.56;3194984;23;20523;-89
2024/01/20 02:52:09;;;;;;;7.63;3.40;;;;;;;-6.58;100.00;99313.94;3194711;23;20017;-89
2024/01/20 02:53:25;;;;;;;8.88;3.80;;;;;;;-6.62;100.00;99315.47;3194781;23;20096;-87
2024/01/20 02:54:41;;;;;;;7.72;3.33;;;;;;;-6.59;100.00;99312.19;3199759;23;20089;-89
2024/01/20 02:55:59;;;;;;;7.63;3.45;;;;;;;-6.71;100.00;99309.88;3194552;23;20120;-89
2024/01/20 02:57:16;;;;;;;9.70;3.80;;;;;;;-6.69;100.00;99305.72;3200966;23;20408;-88
2024/01/20 02:58:32;;;;;;;8.73;3.42;;;;;;;-6.62;100.00;99312.94;3194665;23;20021;-89
2024/01/20 02:59:48;;;;;;;7.03;3.15;;;;;;;-6.62;100.00;99307.84;3169473;23;20659;-88
2024/01/20 03:01:06;;;;;;;10.10;3.63;;;;;;;-6.75;100.00;99315.59;3160003;23;20033;-88
2024/01/20 03:02:22;;;;;;;9.05;3.75;;;;;;;-6.86;100.00;99317.53;3160364;23;20020;-87
2024/01/20 03:03:38;;;;;;;9.30;4.03;;;;;;;-6.68;100.00;99315.13;3175973;23;20004;-85
2024/01/20 03:04:54;;;;;;;9.90;3.95;;;;;;;-6.58;100.00;99319.03;3169161;23;20044;-87
2024/01/20 03:06:10;;;;;;;5.40;3.17;;;;;;;-6.67;100.00;99320.31;3175044;23;20076;-89
2024/01/20 03:07:26;;;;;;;10.77;4.18;;;;;;;-6.61;100.00;99321.44;3194972;23;20055;-88
2024/01/20 03:08:41;;;;;;;10.07;3.55;;;;;;;-6.64;100.00;99323.81;3210083;23;20015;-89
2024/01/20 03:09:57;;;;;;;7.40;3.10;;;;;;;-6.64;100.00;99317.03;3179031;23;20013;-89
2024/01/20 03:11:13;;;;;;;6.85;3.22;;;;;;;-6.71;100.00;99320.91;3174655;23;20547;-89
2024/01/20 03:12:33;;;;;;;8.25;3.40;;;;;;;-6.78;100.00;99317.94;3186056;23;20009;-87
2024/01/20 03:13:49;;;;;;;7.78;2.92;;;;;;;-7.00;100.00;99322.72;3170686;23;20100;-87
2024/01/20 03:15:07;;;;;;;8.95;3.05;;;;;;;-6.88;100.00;99327.63;3175809;23;20016;-87
2024/01/20 03:16:23;;;;;;;9.40;3.38;;;;;;;-6.89;100.00;99336.06;3184433;23;20077;-87
2024/01/20 03:17:39;;;;;;;8.63;3.47;;;;;;;-6.84;100.00;99333.78;3195135;23;20009;-87
2024/01/20 03:18:55;;;;;;;9.40;4.18;;;;;;;-6.81;100.00;99331.41;3193878;23;20021;-87
2024/01/20 03:20:11;;;;;;;9.90;3.35;;;;;;;-6.73;100.00;99334.38;3184368;23;20410;-87
2024/01/20 03:21:27;;;;;;;10.70;3.85;;;;;;;-6.64;100.00;99328.91;3184430;23;20446;-87
2024/01/20 03:22:43;;;;;;;9.35;3.10;;;;;;;-6.68;100.00;99331.28;3199547;23;20100;-90
2024/01/20 03:23:59;;;;;;;6.45;3.25;;;;;;;-6.71;100.00;99337.88;3194571;23;20013;-87
2024/01/20 03:25:16;;;;;;;8.23;3.30;;;;;;;-6.85;100.00;99337.09;3194754;23;20012;-88
2024/01/20 03:26:33;;;;;;;11.32;4.03;;;;;;;-6.82;100.00;99339.84;3179038;23;20087;-87
2024/01/20 03:27:53;;;;;;;8.43;3.63;;;;;;;-6.86;100.00;99341.31;3161171;23;20021;-87
2024/01/20 03:29:09;;;;;;;10.07;3.55;;;;;;;-6.90;100.00;99339.41;3161285;23;20024;-88
2024/01/20 03:30:25;;;;;;;8.50;3.53;;;;;;;-6.83;100.00;99338.94;3175056;23;20017;-87
2024/01/20 03:31:41;;;;;;;7.00;3.08;;;;;;;-6.89;100.00;99342.81;3169692;23;20458;-87
2024/01/20 03:32:57;;;;;;;8.63;3.90;;;;;;;-6.87;100.00;99339.56;3176449;23;20005;-87
2024/01/20 03:34:13;;;;;;;10.38;3.00;;;;;;;-6.86;100.00;99348.06;3170202;23;20098;-87
2024/01/20 03:35:31;;;;;;;7.13;3.50;;;;;;;-6.95;100.00;99344.25;3191299;23;20038;-87
2024/01/20 03:36:48;;;;;;;6.93;3.13;;;;;;;-6.97;100.00;99342.38;3194488;23;20039;-87
2024/01/20 03:38:04;;;;;;;7.20;3.00;;;;;;;-6.87;100.00;99348.88;3184885;23;20044;-88
2024/01/20 03:39:20;;;;;;;6.97;2.63;;;;;;;-6.96;100.00;99352.66;3184004;23;20020;-87
2024/01/20 03:40:36;;;;;;;7.95;3.60;;;;;;;-6.84;100.00;99354.16;3184182;23;20017;-86
2024/01/20 03:41:52;;;;;;;7.53;3.30;;;;;;;-6.83;100.00;99358.47;3169730;23;20096;-87
2024/01/20 03:43:08;;;;;;;7.82;3.42;;;;;;;-6.87;100.00;99356.50;3175935;23;20016;-87
2024/01/20 03:44:24;;;;;;;6.68;3.22;;;;;;;-6.81;100.00;99352.63;3184922;23;20084;-87
2024/01/20 03:45:43;;;;;;;9.43;3.28;;;;;;;-6.75;100.00;99351.25;3184786;23;20840;-87
2024/01/20 03:46:59;;;;;;;8.57;3.53;;;;;;;-6.74;100.00;99353.00;3169127;23;20021;-88
2024/01/20 03:48:16;;;;;;;10.50;3.50;;;;;;;-6.81;100.00;99360.28;3166139;23;20033;-87
2024/01/20 03:49:32;;;;;;;6.60;3.10;;;;;;;-6.88;100.00;99352.22;3158894;23;20013;-87
2024/01/20 03:50:47;;;;;;;6.63;3.35;;;;;;;-6.95;100.00;99354.41;3174234;23;20441;-87
2024/01/20 03:52:05;;;;;;;7.78;3.20;;;;;;;-7.02;100.00;99364.16;3169517;23;20013;-87
2024/01/20 03:53:21;;;;;;;6.32;2.75;;;;;;;-7.20;100.00;99358.91;3175013;23;20009;-87
2024/01/20 03:54:38;;;;;;;7.90;2.67;;;;;;;-7.12;100.00;99361.09;3169083;23;20036;-87
2024/01/20 03:55:54;;;;;;;8.23;3.40;;;;;;;-7.04;100.00;99355.56;3185936;23;20009;-87
2024/01/20 03:57:10;;;;;;;8.18;2.95;;;;;;;-7.05;100.00;99358.88;3193695;23;20020;-87
2024/01/20 03:58:26;;;;;;;7.60;3.10;;;;;;;-7.04;100.00;99355.56;3194953;23;20028;-87
2024/01/20 03:59:42;;;;;;;6.20;3.05;;;;;;;-7.18;100.00;99358.22;3195115;23;20041;-87
2024/01/20 04:00:58;;;;;;;6.60;2.90;;;;;;;-7.17;100.00;99362.50;3177790;23;20029;-87
2024/01/20 04:02:14;;;;;;;8.18;3.75;;;;;;;-7.17;100.00;99356.53;3159695;23;20033;-89
2024/01/20 04:03:30;;;;;;;7.35;2.80;;;;;;;-7.16;100.00;99354.06;3160055;23;20071;-87
2024/01/20 04:04:46;;;;;;;11.02;3.38;;;;;;;-7.85;100.00;99371.25;3174346;23;20012;-87
2024/01/20 04:06:05;;;;;;;9.25;3.50;;;;;;;-7.66;100.00;99370.69;3185321;23;20013;-87
2024/01/20 04:07:21;;;;;;;11.73;3.58;;;;;;;-7.47;100.00;99374.31;3194520;23;20001;-87
2024/01/20 04:08:37;;;;;;;9.35;3.35;;;;;;;-7.50;100.00;99369.91;3193458;23;20075;-87
2024/01/20 04:09:53;;;;;;;6.28;2.78;;;;;;;-7.43;100.00;99366.06;3193847;23;20021;-87
2024/01/20 04:11:09;;;;;;;11.07;3.15;;;;;;;-7.65;100.00;99362.25;3195231;23;20080;-87
2024/01/20 04:12:25;;;;;;;6.45;2.83;;;;;;;-7.46;100.00;99363.34;3210225;23;20008;-87
2024/01/20 04:13:41;;;;;;;6.97;3.15;;;;;;;-7.61;100.00;99365.84;3204577;23;20009;-87
2024/01/20 04:14:57;;;;;;;10.23;3.72;;;;;;;-7.49;100.00;99370.81;3193064;23;20013;-87
2024/01/20 04:16:13;;;;;;;9.73;3.72;;;;;;;-7.43;100.00;99361.88;3168902;23;20471;-87
2024/01/20 04:17:29;;;;;;;9.95;3.70;;;;;;;-7.21;100.00;99368.19;3174220;23;20013;-87
2024/01/20 04:18:45;;;;;;;8.95;3.30;;;;;;;-7.28;100.00;99364.41;3169254;23;20445;-87
2024/01/20 04:20:04;;;;;;;7.75;3.33;;;;;;;-7.35;100.00;99374.13;3184988;23;20009;-87
2024/01/20 04:21:21;;;;;;;10.48;3.60;;;;;;;-7.25;100.00;99374.78;3178290;23;20017;-87
2024/01/20 04:22:38;;;;;;;10.10;3.38;;;;;;;-7.33;100.00;99381.09;3185930;23;20013;-87
2024/01/20 04:23:55;;;;;;;6.53;3.38;;;;;;;-7.26;100.00;99380.66;3193708;23;20616;-87
2024/01/20 04:25:12;;;;;;;7.57;3.80;;;;;;;-7.42;100.00;99380.53;3181983;23;20458;-87
2024/01/20 04:26:28;;;;;;;7.45;3.45;;;;;;;-7.21;100.00;99380.03;3185576;23;20017;-87
2024/01/20 04:27:44;;;;;;;9.93;4.80;;;;;;;-7.15;100.00;99380.38;3169942;23;20100;-87
2024/01/20 04:29:00;;;;;;;10.13;4.28;;;;;;;-7.12;100.00;99385.69;3176336;23;20516;-87
2024/01/20 04:30:17;;;;;;;15.38;4.25;;;;;;;-7.11;100.00;99380.66;3185307;23;20265;-87
2024/01/20 04:31:34;;;;;;;8.05;3.55;;;;;;;-7.04;100.00;99386.97;3185112;23;20073;-87
2024/01/20 04:32:50;;;;;;;9.10;3.58;;;;;;;-7.11;100.00;99388.28;3169184;23;20057;-87
2024/01/20 04:34:06;;;;;;;7.13;3.15;;;;;;;-7.07;100.00;99394.44;3176325;23;20092;-86
2024/01/20 04:35:25;;;;;;;11.25;3.75;;;;;;;-7.04;100.00;99389.53;3169256;23;20020;-87
2024/01/20 04:36:41;;;;;;;9.48;3.80;;;;;;;-7.12;100.00;99389.09;3176344;23;20470;-87
2024/01/20 04:37:57;;;;;;;6.65;3.15;;;;;;;-7.09;100.00;99386.72;3183891;23;20164;-87
2024/01/20 04:39:14;;;;;;;9.75;3.85;;;;;;;-7.07;100.00;99391.91;3170126;23;20052;-86
2024/01/20 04:40:30;;;;;;;8.02;3.35;;;;;;;-7.04;100.00;99394.63;3161061;23;20014;-87
2024/01/20 04:41:48;;;;;;;8.18;3.38;;;;;;;-6.99;100.00;99398.28;3175124;23;20084;-87
2024/01/20 04:43:05;;;;;;;7.95;3.75;;;;;;;-6.88;100.00;99390.41;3167318;23;20240;-88
2024/01/20 04:44:27;;;;;;;9.32;3.63;;;;;;;-6.88;100.00;99388.75;3176714;23;20059;-87
2024/01/20 04:45:58;;;;;;;;;;;;;;;-7.05;100.00;99392.88;3186437;23;20017;-87
2024/01/20 04:47:14;;;;;;;4.90;2.63;;;;;;;-7.09;100.00;99396.03;3193679;23;20326;-87
2024/01/20 04:48:31;;;;;;;11.07;3.78;;;;;;;-7.01;100.00;99394.78;3174678;23;20021;-87
2024/01/20 04:49:48;;;;;;;8.35;4.35;;;;;;;-7.00;100.00;99396.53;3176149;23;20365;-86
2024/01/20 04:51:04;;;;;;;10.52;3.42;;;;;;;-7.09;100.00;99398.56;3185139;23;20092;-87
2024/01/20 04:52:22;;;;;;;7.38;3.45;;;;;;;-7.11;100.00;99406.09;3169113;23;20018;-88
2024/01/20 04:53:39;;;;;;;8.65;3.95;;;;;;;-6.89;100.00;99401.38;3185819;23;20348;-87
2024/01/20 04:54:55;;;;;;;10.13;3.55;;;;;;;-6.87;100.00;99404.88;3195149;23;20062;-87
2024/01/20 04:56:12;;;;;;;6.18;3.10;;;;;;;-6.81;100.00;99398.47;3195100;23;20112;-87
2024/01/20 04:57:28;;;;;;;7.55;3.35;;;;;;;-6.64;100.00;99395.13;3178576;23;20013;-87
2024/01/20 04:58:44;;;;;;;6.80;2.80;;;;;;;-6.63;100.00;99391.78;3175151;23;20021;-87
2024/01/20 05:00:00;;;;;;;5.70;2.55;;;;;;;-6.34;100.00;99395.97;3169318;23;20048;-87
2024/01/20 05:01:16;;;;;;;3.75;2.05;;;;;;;-6.16;100.00;99396.06;3160424;23;20013;-87
2024/01/20 05:02:35;;;;;;;5.47;2.67;;;;;;;-5.78;100.00;99395.47;3174767;23;20012;-86
2024/01/20 05:03:51;;;;;;;5.00;1.73;;;;;;;-5.57;100.00;99396.59;3185768;23;20013;-87
2024/01/20 05:05:08;;;;;;;5.15;2.35;;;;;;;-5.60;100.00;99398.97;3169861;23;20010;-86
2024/01/20 05:06:24;;;;;;;5.68;3.03;;;;;;;-5.47;100.00;99403.03;3175520;23;20086;-87
2024/01/20 05:07:40;;;;;;;6.43;3.45;;;;;;;-5.71;100.00;99400.97;3152740;23;20502;-87
2024/01/20 05:08:56;;;;;;;7.18;3.47;;;;;;;-6.16;100.00;99401.16;3166032;23;20005;-87
2024/01/20 05:10:13;;;;;;;11.38;4.82;;;;;;;-6.46;100.00;99395.28;3168513;23;20454;-87
2024/01/20 05:11:28;;;;;;;9.07;4.72;;;;;;;-6.45;100.00;99392.81;3175565;23;20020;-87
2024/01/20 05:12:44;;;;;;;7.75;3.97;;;;;;;-6.25;100.00;99391.34;3185045;23;20009;-88
2024/01/20 05:14:00;;;;;;;11.75;5.03;;;;;;;-6.35;100.00;99395.88;3169270;23;20101;-86
2024/01/20 05:15:16;;;;;;;15.60;5.70;;;;;;;-6.58;100.00;99410.75;3190340;23;20425;-88
2024/01/20 05:16:32;;;;;;;11.63;5.82;;;;;;;-6.62;100.00;99406.28;3178027;23;20170;-87
2024/01/20 05:17:49;;;;;;;17.40;6.82;;;;;;;-6.93;100.00;99399.44;3185519;23;20013;-87
2024/01/20 05:19:04;;;;;;;18.08;7.22;;;;;;;-7.14;100.00;99408.47;3178030;23;20071;-87
2024/01/20 05:20:20;;;;;;;20.23;7.28;;;;;;;-7.20;100.00;99412.34;3185743;23;20047;-87
2024/01/20 05:21:38;;;;;;;17.30;7.10;;;;;;;-7.18;100.00;99408.22;3177620;23;20037;-87
2024/01/20 05:22:54;;;;;;;14.70;5.45;;;;;;;-7.03;100.00;99409.09;3160604;23;20454;-87
2024/01/20 05:24:10;;;;;;;13.88;6.13;;;;;;;-6.93;100.00;99410.50;3175688;23;20031;-86
2024/01/20 05:25:27;;;;;;;14.77;5.38;;;;;;;-6.87;100.00;99415.06;3183884;23;20148;-88
2024/01/20 05:26:43;;;;;;;15.68;5.72;;;;;;;-6.86;100.00;99414.28;3168989;23;20009;-87
2024/01/20 05:27:59;;;;;;;14.23;6.13;;;;;;;-6.93;100.00;99412.19;3160300;23;20020;-89
2024/01/20 05:29:15;;;;;;;15.77;6.53;;;;;;;-6.97;100.00;99419.66;3191503;23;20100;-87
2024/01/20 05:30:32;;;;;;;5.80;3.67;;;;;;;-7.03;100.00;99421.81;3203672;23;20070;-87
2024/01/20 05:31:47;;;;;;;17.20;6.05;;;;;;;-6.90;100.00;99417.44;3196200;23;20088;-87
2024/01/20 05:33:03;;;;;;;14.63;5.70;;;;;;;-6.94;100.00;99416.38;3178973;23;20505;-86
2024/01/20 05:34:20;;;;;;;15.90;6.03;;;;;;;-6.95;100.00;99412.97;3176112;23;20017;-86
2024/01/20 05:35:37;;;;;;;11.65;5.53;;;;;;;-6.95;100.00;99420.63;3185123;23;20013;-87
2024/01/20 05:36:54;;;;;;;15.68;5.97;;;;;;;-7.06;100.00;99424.19;3186517;23;20013;-87
2024/01/20 05:38:12;;;;;;;12.63;5.63;;;;;;;-7.05;100.00;99430.16;3170001;23;20047;-87
2024/01/20 05:39:30;;;;;;;11.50;5.10;;;;;;;-7.15;100.00;99432.19;3161716;23;20009;-86
2024/01/20 05:40:46;;;;;;;13.50;5.22;;;;;;;-7.42;100.00;99439.03;3177431;23;20021;-88
2024/01/20 05:42:02;;;;;;;15.50;4.97;;;;;;;-7.40;100.00;99435.81;3195733;23;20013;-87
2024/01/20 05:43:19;;;;;;;10.45;4.90;;;;;;;-7.49;100.00;99435.25;3194399;23;20040;-89
2024/01/20 05:44:35;;;;;;;11.68;4.00;;;;;;;-7.09;100.00;99440.16;3186289;23;20468;-89
2024/01/20 05:45:51;;;;;;;6.03;3.42;;;;;;;-6.98;100.00;99434.81;3185100;23;20016;-87
2024/01/20 05:47:07;;;;;;;8.27;3.17;;;;;;;-6.88;100.00;99438.78;3201348;23;20487;-89
2024/01/20 05:48:23;;;;;;;5.82;2.72;;;;;;;-6.53;100.00;99432.28;3178455;23;20457;-89
2024/01/20 05:49:40;;;;;;;11.95;3.38;;;;;;;-6.39;100.00;99425.41;3170715;23;20024;-89
2024/01/20 05:50:56;;;;;;;6.55;2.03;;;;;;;-6.30;100.00;99435.22;3161122;23;20138;-88
2024/01/20 05:52:12;;;;;;;6.22;2.90;;;;;;;-6.35;100.00;99439.19;3176513;23;20081;-88
2024/01/20 05:53:29;;;;;;;8.75;3.45;;;;;;;-6.32;100.00;99435.16;3178334;23;20113;-86